sensor_id;sensor_type;location;lat;lon;timestamp;pressure;altitude;pressure_sealevel;temperature;humidity
69624;BME280;56843;52.020;5.670;2023-03-05T00:01:28;102047.13;;;11.08;56.37
69624;BME280;56843;52.020;5.670;2023-03-05T00:02:58;102053.28;;;11.08;56.14
69624;BME280;56843;52.020;5.670;2023-03-05T00:04:29;102046.03;;;11.09;56.38
69624;BME280;56843;52.020;5.670;2023-03-05T00:06:00;102046.03;;;11.09;56.23
69624;BME280;56843;52.020;5.670;2023-03-05T00:07:30;102045.25;;;11.08;56.20
69624;BME280;56843;52.020;5.670;2023-03-05T00:09:01;102045.25;;;11.08;56.22
69624;BME280;56843;52.020;5.670;2023-03-05T00:10:31;102039.59;;;11.10;56.35
69624;BME280;56843;52.020;5.670;2023-03-05T00:12:02;102040.69;;;11.09;56.33
69624;BME280;56843;52.020;5.670;2023-03-05T00:13:33;102041.47;;;11.09;56.49
69624;BME280;56843;52.020;5.670;2023-03-05T00:15:04;102036.94;;;11.10;56.37
69624;BME280;56843;52.020;5.670;2023-03-05T00:16:34;102037.25;;;11.08;56.23
69624;BME280;56843;52.020;5.670;2023-03-05T00:18:05;102032.66;;;11.09;56.51
69624;BME280;56843;52.020;5.670;2023-03-05T00:19:35;102033.47;;;11.09;56.64
69624;BME280;56843;52.020;5.670;2023-03-05T00:21:20;102028.59;;;11.12;56.54
69624;BME280;56843;52.020;5.670;2023-03-05T00:22:50;102028.41;;;11.08;56.55
69624;BME280;56843;52.020;5.670;2023-03-05T00:24:21;102029.22;;;11.08;56.45
69624;BME280;56843;52.020;5.670;2023-03-05T00:25:51;102024.63;;;11.09;56.56
69624;BME280;56843;52.020;5.670;2023-03-05T00:27:21;102030.00;;;11.09;56.46
69624;BME280;56843;52.020;5.670;2023-03-05T00:28:54;102023.88;;;11.08;56.53
69624;BME280;56843;52.020;5.670;2023-03-05T00:30:26;102026.25;;;11.10;56.18
69624;BME280;56843;52.020;5.670;2023-03-05T00:31:56;102014.25;;;11.07;56.57
69624;BME280;56843;52.020;5.670;2023-03-05T00:33:27;102018.22;;;11.10;56.30
69624;BME280;56843;52.020;5.670;2023-03-05T00:34:57;102021.69;;;11.11;56.27
69624;BME280;56843;52.020;5.670;2023-03-05T00:36:28;102012.88;;;11.10;56.56
69624;BME280;56843;52.020;5.670;2023-03-05T00:37:59;102016.34;;;11.11;56.18
69624;BME280;56843;52.020;5.670;2023-03-05T00:39:29;102018.53;;;11.08;56.59
69624;BME280;56843;52.020;5.670;2023-03-05T00:41:01;102019.81;;;11.11;56.34
69624;BME280;56843;52.020;5.670;2023-03-05T00:42:31;102019.81;;;11.11;56.36
69624;BME280;56843;52.020;5.670;2023-03-05T00:44:07;102011.00;;;11.11;56.35
69624;BME280;56843;52.020;5.670;2023-03-05T00:45:38;102011.00;;;11.11;56.50
69624;BME280;56843;52.020;5.670;2023-03-05T00:47:08;102007.53;;;11.10;56.70
69624;BME280;56843;52.020;5.670;2023-03-05T00:48:39;102005.66;;;11.11;56.40
69624;BME280;56843;52.020;5.670;2023-03-05T00:50:10;102011.00;;;11.11;56.40
69624;BME280;56843;52.020;5.670;2023-03-05T00:51:40;102002.97;;;11.11;56.57
69624;BME280;56843;52.020;5.670;2023-03-05T00:53:11;102003.25;;;11.09;57.05
69624;BME280;56843;52.020;5.670;2023-03-05T00:54:41;102009.13;;;11.11;56.56
69624;BME280;56843;52.020;5.670;2023-03-05T00:56:12;102004.06;;;11.09;56.53
69624;BME280;56843;52.020;5.670;2023-03-05T00:57:43;102002.19;;;11.10;56.43
69624;BME280;56843;52.020;5.670;2023-03-05T00:59:13;102000.31;;;11.11;56.53
69624;BME280;56843;52.020;5.670;2023-03-05T01:00:43;101996.84;;;11.10;56.49
69624;BME280;56843;52.020;5.670;2023-03-05T01:02:14;101998.72;;;11.09;56.55
69624;BME280;56843;52.020;5.670;2023-03-05T01:03:45;102001.09;;;11.11;56.38
69624;BME280;56843;52.020;5.670;2023-03-05T01:05:15;101998.44;;;11.11;56.66
69624;BME280;56843;52.020;5.670;2023-03-05T01:06:46;101991.78;;;11.08;56.56
69624;BME280;56843;52.020;5.670;2023-03-05T01:08:17;102001.09;;;11.11;56.66
69624;BME280;56843;52.020;5.670;2023-03-05T01:09:47;101983.47;;;11.10;56.71
69624;BME280;56843;52.020;5.670;2023-03-05T01:11:18;101994.97;;;11.11;56.72
69624;BME280;56843;52.020;5.670;2023-03-05T01:12:48;101992.28;;;11.11;56.58
69624;BME280;56843;52.020;5.670;2023-03-05T01:14:19;101990.41;;;11.11;56.38
69624;BME280;56843;52.020;5.670;2023-03-05T01:15:50;101988.81;;;11.10;56.59
69624;BME280;56843;52.020;5.670;2023-03-05T01:17:21;101986.13;;;11.10;56.64
69624;BME280;56843;52.020;5.670;2023-03-05T01:18:51;101978.91;;;11.11;56.83
69624;BME280;56843;52.020;5.670;2023-03-05T01:20:22;101984.25;;;11.11;56.55
69624;BME280;56843;52.020;5.670;2023-03-05T01:21:52;101981.88;;;11.09;56.65
69624;BME280;56843;52.020;5.670;2023-03-05T01:23:24;101977.31;;;11.09;56.50
69624;BME280;56843;52.020;5.670;2023-03-05T01:24:54;101976.53;;;11.09;56.54
69624;BME280;56843;52.020;5.670;2023-03-05T01:26:25;101968.22;;;11.11;56.77
69624;BME280;56843;52.020;5.670;2023-03-05T01:27:55;101967.72;;;11.08;56.42
69624;BME280;56843;52.020;5.670;2023-03-05T01:29:26;101968.50;;;11.09;56.53
69624;BME280;56843;52.020;5.670;2023-03-05T01:30:57;101971.97;;;11.09;56.66
69624;BME280;56843;52.020;5.670;2023-03-05T01:32:27;101970.09;;;11.10;56.79
69624;BME280;56843;52.020;5.670;2023-03-05T01:33:58;101963.16;;;11.09;56.59
69624;BME280;56843;52.020;5.670;2023-03-05T01:35:29;101959.72;;;11.08;56.58
69624;BME280;56843;52.020;5.670;2023-03-05T01:37:00;101953.56;;;11.08;56.85
69624;BME280;56843;52.020;5.670;2023-03-05T01:38:30;101958.59;;;11.09;56.89
69624;BME280;56843;52.020;5.670;2023-03-05T01:40:01;101955.13;;;11.09;56.87
69624;BME280;56843;52.020;5.670;2023-03-05T01:41:31;101947.13;;;11.09;56.92
69624;BME280;56843;52.020;5.670;2023-03-05T01:44:59;101950.09;;;11.07;56.73
69624;BME280;56843;52.020;5.670;2023-03-05T01:46:36;101942.88;;;11.08;56.80
69624;BME280;56843;52.020;5.670;2023-03-05T01:48:07;101942.38;;;11.06;57.11
69624;BME280;56843;52.020;5.670;2023-03-05T01:49:39;101943.94;;;11.07;57.06
69624;BME280;56843;52.020;5.670;2023-03-05T01:51:11;101935.94;;;11.07;56.83
69624;BME280;56843;52.020;5.670;2023-03-05T01:52:45;101927.91;;;11.07;56.87
69624;BME280;56843;52.020;5.670;2023-03-05T01:54:20;101931.69;;;11.06;56.98
69624;BME280;56843;52.020;5.670;2023-03-05T01:55:51;101926.03;;;11.07;57.03
69624;BME280;56843;52.020;5.670;2023-03-05T01:57:33;101925.72;;;11.09;56.97
69624;BME280;56843;52.020;5.670;2023-03-05T01:59:06;101917.53;;;11.05;57.25
69624;BME280;56843;52.020;5.670;2023-03-05T02:02:31;101915.16;;;11.04;57.16
69624;BME280;56843;52.020;5.670;2023-03-05T02:04:02;101911.38;;;11.05;57.35
69624;BME280;56843;52.020;5.670;2023-03-05T02:05:35;101911.09;;;11.06;56.96
69624;BME280;56843;52.020;5.670;2023-03-05T02:07:08;101908.44;;;11.06;57.07
69624;BME280;56843;52.020;5.670;2023-03-05T02:08:39;101908.44;;;11.06;57.47
69624;BME280;56843;52.020;5.670;2023-03-05T02:10:20;101910.00;;;11.07;57.00
69624;BME280;56843;52.020;5.670;2023-03-05T02:11:51;101902.28;;;11.06;57.28
69624;BME280;56843;52.020;5.670;2023-03-05T02:13:24;101892.38;;;11.06;57.25
69624;BME280;56843;52.020;5.670;2023-03-05T02:14:55;101896.13;;;11.05;57.40
69624;BME280;56843;52.020;5.670;2023-03-05T02:16:28;101896.13;;;11.05;57.26
69624;BME280;56843;52.020;5.670;2023-03-05T02:18:08;101889.19;;;11.04;57.00
69624;BME280;56843;52.020;5.670;2023-03-05T02:19:50;101891.59;;;11.06;57.07
69624;BME280;56843;52.020;5.670;2023-03-05T02:21:34;101879.59;;;11.03;57.27
69624;BME280;56843;52.020;5.670;2023-03-05T02:23:06;101880.69;;;11.02;57.54
69624;BME280;56843;52.020;5.670;2023-03-05T02:24:36;101880.09;;;11.05;57.23
69624;BME280;56843;52.020;5.670;2023-03-05T02:26:09;101882.78;;;11.05;57.21
69624;BME280;56843;52.020;5.670;2023-03-05T02:27:42;101875.06;;;11.04;57.24
69624;BME280;56843;52.020;5.670;2023-03-05T02:29:17;101887.03;;;11.06;57.41
69624;BME280;56843;52.020;5.670;2023-03-05T02:30:48;101881.97;;;11.05;57.25
69624;BME280;56843;52.020;5.670;2023-03-05T02:32:18;101880.91;;;11.06;57.23
69624;BME280;56843;52.020;5.670;2023-03-05T02:33:50;101875.56;;;11.06;57.34
69624;BME280;56843;52.020;5.670;2023-03-05T02:35:22;101869.72;;;11.04;57.51
69624;BME280;56843;52.020;5.670;2023-03-05T02:36:53;101868.59;;;11.05;57.56
69624;BME280;56843;52.020;5.670;2023-03-05T02:38:26;101870.47;;;11.04;57.25
69624;BME280;56843;52.020;5.670;2023-03-05T02:39:57;101869.41;;;11.05;57.43
69624;BME280;56843;52.020;5.670;2023-03-05T02:41:27;101864.06;;;11.05;57.53
69624;BME280;56843;52.020;5.670;2023-03-05T02:43:00;101862.47;;;11.04;57.55
69624;BME280;56843;52.020;5.670;2023-03-05T02:44:30;101865.94;;;11.05;57.62
69624;BME280;56843;52.020;5.670;2023-03-05T02:46:01;101860.59;;;11.05;57.41
69624;BME280;56843;52.020;5.670;2023-03-05T02:47:32;101855.56;;;11.03;57.53
69624;BME280;56843;52.020;5.670;2023-03-05T02:49:02;101857.13;;;11.04;57.44
69624;BME280;56843;52.020;5.670;2023-03-05T02:50:33;101855.25;;;11.05;57.60
69624;BME280;56843;52.020;5.670;2023-03-05T02:52:04;101853.38;;;11.05;57.65
69624;BME280;56843;52.020;5.670;2023-03-05T02:53:35;101854.16;;;11.06;57.37
69624;BME280;56843;52.020;5.670;2023-03-05T02:55:06;101849.09;;;11.04;57.46
69624;BME280;56843;52.020;5.670;2023-03-05T02:56:37;101843.75;;;11.04;57.39
69624;BME280;56843;52.020;5.670;2023-03-05T02:58:09;101844.84;;;11.03;57.61
69624;BME280;56843;52.020;5.670;2023-03-05T02:59:39;101846.44;;;11.04;57.77
69624;BME280;56843;52.020;5.670;2023-03-05T03:01:10;101838.41;;;11.04;57.70
69624;BME280;56843;52.020;5.670;2023-03-05T03:02:41;101834.16;;;11.03;57.54
69624;BME280;56843;52.020;5.670;2023-03-05T03:04:11;101839.50;;;11.03;57.73
69624;BME280;56843;52.020;5.670;2023-03-05T03:05:42;101833.38;;;11.03;57.50
69624;BME280;56843;52.020;5.670;2023-03-05T03:07:13;101831.50;;;11.03;57.54
69624;BME280;56843;52.020;5.670;2023-03-05T03:08:44;101828.81;;;11.03;57.73
69624;BME280;56843;52.020;5.670;2023-03-05T03:10:14;101831.50;;;11.03;57.78
69624;BME280;56843;52.020;5.670;2023-03-05T03:11:45;101818.94;;;11.04;57.86
69624;BME280;56843;52.020;5.670;2023-03-05T03:13:15;101823.47;;;11.03;57.82
69624;BME280;56843;52.020;5.670;2023-03-05T03:14:46;101820.00;;;11.03;57.63
69624;BME280;56843;52.020;5.670;2023-03-05T03:16:16;101818.13;;;11.03;57.69
69624;BME280;56843;52.020;5.670;2023-03-05T03:17:47;101819.22;;;11.02;57.71
69624;BME280;56843;52.020;5.670;2023-03-05T03:19:17;101813.09;;;11.02;57.88
69624;BME280;56843;52.020;5.670;2023-03-05T03:20:48;101817.31;;;11.03;57.89
69624;BME280;56843;52.020;5.670;2023-03-05T03:22:18;101806.63;;;11.03;57.85
69624;BME280;56843;52.020;5.670;2023-03-05T03:23:49;101805.34;;;11.00;57.79
69624;BME280;56843;52.020;5.670;2023-03-05T03:25:21;101811.19;;;11.02;57.75
69624;BME280;56843;52.020;5.670;2023-03-05T03:26:55;101800.50;;;11.02;57.95
69624;BME280;56843;52.020;5.670;2023-03-05T03:28:26;101806.63;;;11.03;57.77
69624;BME280;56843;52.020;5.670;2023-03-05T03:29:56;101804.28;;;11.01;57.91
69624;BME280;56843;52.020;5.670;2023-03-05T03:31:31;101800.50;;;11.02;58.02
69624;BME280;56843;52.020;5.670;2023-03-05T03:33:02;101805.84;;;11.02;58.00
69624;BME280;56843;52.020;5.670;2023-03-05T03:34:33;101797.81;;;11.02;58.16
69624;BME280;56843;52.020;5.670;2023-03-05T03:36:04;101800.50;;;11.02;57.84
69624;BME280;56843;52.020;5.670;2023-03-05T03:37:35;101798.13;;;11.01;58.21
69624;BME280;56843;52.020;5.670;2023-03-05T03:39:05;101798.94;;;11.01;58.10
69624;BME280;56843;52.020;5.670;2023-03-05T03:40:36;101795.47;;;11.01;58.29
69624;BME280;56843;52.020;5.670;2023-03-05T03:42:06;101793.59;;;11.01;58.18
69624;BME280;56843;52.020;5.670;2023-03-05T03:43:37;101793.59;;;11.01;58.29
69624;BME280;56843;52.020;5.670;2023-03-05T03:45:08;101782.91;;;11.01;58.46
69624;BME280;56843;52.020;5.670;2023-03-05T03:46:39;101791.72;;;11.02;58.17
69624;BME280;56843;52.020;5.670;2023-03-05T03:48:10;101775.94;;;11.00;58.45
69624;BME280;56843;52.020;5.670;2023-03-05T03:49:40;101781.28;;;11.00;58.26
69624;BME280;56843;52.020;5.670;2023-03-05T03:51:11;101781.28;;;11.00;58.26
69624;BME280;56843;52.020;5.670;2023-03-05T03:52:41;101772.19;;;11.01;58.52
69624;BME280;56843;52.020;5.670;2023-03-05T03:54:13;101777.53;;;11.01;58.75
69624;BME280;56843;52.020;5.670;2023-03-05T03:55:44;101767.94;;;11.00;58.76
69624;BME280;56843;52.020;5.670;2023-03-05T03:57:15;101772.19;;;11.01;58.62
69624;BME280;56843;52.020;5.670;2023-03-05T03:58:49;101769.22;;;11.03;58.64
69624;BME280;56843;52.020;5.670;2023-03-05T04:00:21;101775.66;;;11.02;58.44
69624;BME280;56843;52.020;5.670;2023-03-05T04:01:51;101760.72;;;11.01;58.50
69624;BME280;56843;52.020;5.670;2023-03-05T04:03:22;101767.66;;;11.02;58.50
69624;BME280;56843;52.020;5.670;2023-03-05T04:04:52;101761.50;;;11.01;58.57
69624;BME280;56843;52.020;5.670;2023-03-05T04:06:23;101764.66;;;11.03;58.65
69624;BME280;56843;52.020;5.670;2023-03-05T04:07:53;101766.53;;;11.03;58.57
69624;BME280;56843;52.020;5.670;2023-03-05T04:09:24;101766.06;;;11.01;58.60
69624;BME280;56843;52.020;5.670;2023-03-05T04:10:55;101753.50;;;11.01;58.51
69624;BME280;56843;52.020;5.670;2023-03-05T04:12:25;101756.97;;;11.02;58.66
69624;BME280;56843;52.020;5.670;2023-03-05T04:13:56;101758.84;;;11.01;58.39
69624;BME280;56843;52.020;5.670;2023-03-05T04:15:26;101754.28;;;11.02;58.71
69624;BME280;56843;52.020;5.670;2023-03-05T04:16:57;101751.63;;;11.02;58.72
69624;BME280;56843;52.020;5.670;2023-03-05T04:18:27;101752.38;;;11.02;58.73
69624;BME280;56843;52.020;5.670;2023-03-05T04:19:58;101749.22;;;11.00;58.44
69624;BME280;56843;52.020;5.670;2023-03-05T04:21:28;101756.16;;;11.01;58.78
69624;BME280;56843;52.020;5.670;2023-03-05T04:22:59;101757.25;;;11.00;58.85
69624;BME280;56843;52.020;5.670;2023-03-05T04:24:30;101745.78;;;11.00;58.82
69624;BME280;56843;52.020;5.670;2023-03-05T04:26:00;101738.53;;;11.00;58.73
69624;BME280;56843;52.020;5.670;2023-03-05T04:27:32;101753.50;;;11.01;58.80
69624;BME280;56843;52.020;5.670;2023-03-05T04:29:03;101751.91;;;11.00;58.67
69624;BME280;56843;52.020;5.670;2023-03-05T04:30:34;101743.59;;;11.02;58.46
69624;BME280;56843;52.020;5.670;2023-03-05T04:32:05;101746.28;;;11.02;58.74
69624;BME280;56843;52.020;5.670;2023-03-05T04:33:35;101739.31;;;11.01;58.66
69624;BME280;56843;52.020;5.670;2023-03-05T04:35:06;101740.13;;;11.01;58.93
69624;BME280;56843;52.020;5.670;2023-03-05T04:36:37;101743.88;;;11.00;58.92
69624;BME280;56843;52.020;5.670;2023-03-05T04:38:07;101742.81;;;11.01;58.71
69624;BME280;56843;52.020;5.670;2023-03-05T04:39:38;101737.44;;;11.01;58.93
69624;BME280;56843;52.020;5.670;2023-03-05T04:41:08;101733.97;;;11.01;58.83
69624;BME280;56843;52.020;5.670;2023-03-05T04:42:39;101733.97;;;11.01;59.00
69624;BME280;56843;52.020;5.670;2023-03-05T04:44:09;101739.31;;;11.01;59.01
69624;BME280;56843;52.020;5.670;2023-03-05T04:45:41;101733.19;;;11.00;58.67
69624;BME280;56843;52.020;5.670;2023-03-05T04:47:12;101737.75;;;11.00;58.98
69624;BME280;56843;52.020;5.670;2023-03-05T04:48:43;101747.34;;;11.01;59.06
69624;BME280;56843;52.020;5.670;2023-03-05T04:50:13;101735.38;;;10.98;58.91
69624;BME280;56843;52.020;5.670;2023-03-05T04:51:44;101736.16;;;10.99;58.86
69624;BME280;56843;52.020;5.670;2023-03-05T04:53:14;101733.81;;;10.97;59.13
69624;BME280;56843;52.020;5.670;2023-03-05T04:54:45;101732.69;;;10.98;59.13
69624;BME280;56843;52.020;5.670;2023-03-05T04:56:15;101726.56;;;10.98;58.86
69624;BME280;56843;52.020;5.670;2023-03-05T04:57:46;101725.47;;;10.99;59.25
69624;BME280;56843;52.020;5.670;2023-03-05T04:59:16;101733.50;;;10.99;59.10
69624;BME280;56843;52.020;5.670;2023-03-05T05:00:47;101724.19;;;10.96;58.99
69624;BME280;56843;52.020;5.670;2023-03-05T05:02:17;101725.78;;;10.97;59.08
69624;BME280;56843;52.020;5.670;2023-03-05T05:03:47;101716.97;;;10.97;59.18
69624;BME280;56843;52.020;5.670;2023-03-05T05:05:21;101717.78;;;10.97;59.02
69624;BME280;56843;52.020;5.670;2023-03-05T05:06:56;101712.44;;;10.97;59.05
69624;BME280;56843;52.020;5.670;2023-03-05T05:08:27;101716.97;;;10.97;59.14
69624;BME280;56843;52.020;5.670;2023-03-05T05:09:58;101714.31;;;10.97;59.38
69624;BME280;56843;52.020;5.670;2023-03-05T05:11:28;101716.19;;;10.96;59.28
69624;BME280;56843;52.020;5.670;2023-03-05T05:12:59;101710.03;;;10.96;59.13
69624;BME280;56843;52.020;5.670;2023-03-05T05:14:29;101715.38;;;10.96;59.25
69624;BME280;56843;52.020;5.670;2023-03-05T05:16:00;101708.97;;;10.97;59.27
69624;BME280;56843;52.020;5.670;2023-03-05T05:17:31;101710.84;;;10.96;59.08
69624;BME280;56843;52.020;5.670;2023-03-05T05:19:02;101707.69;;;10.94;59.16
69624;BME280;56843;52.020;5.670;2023-03-05T05:20:33;101708.16;;;10.96;59.29
69624;BME280;56843;52.020;5.670;2023-03-05T05:22:03;101705.50;;;10.96;58.99
69624;BME280;56843;52.020;5.670;2023-03-05T05:23:34;101705.50;;;10.96;59.30
69624;BME280;56843;52.020;5.670;2023-03-05T05:25:05;101709.75;;;10.97;59.18
69624;BME280;56843;52.020;5.670;2023-03-05T05:26:36;101700.94;;;10.97;59.08
69624;BME280;56843;52.020;5.670;2023-03-05T05:28:06;101704.41;;;10.97;59.11
69624;BME280;56843;52.020;5.670;2023-03-05T05:29:37;101697.47;;;10.96;59.41
69624;BME280;56843;52.020;5.670;2023-03-05T05:31:09;101700.63;;;10.98;59.37
69624;BME280;56843;52.020;5.670;2023-03-05T05:32:39;101694.47;;;10.98;59.23
69624;BME280;56843;52.020;5.670;2023-03-05T05:34:10;101696.41;;;10.97;59.04
69624;BME280;56843;52.020;5.670;2023-03-05T05:35:40;101705.19;;;10.98;59.01
69624;BME280;56843;52.020;5.670;2023-03-05T05:37:11;101697.16;;;10.98;59.36
69624;BME280;56843;52.020;5.670;2023-03-05T05:38:41;101698.28;;;10.97;59.11
69624;BME280;56843;52.020;5.670;2023-03-05T05:40:12;101699.84;;;10.98;59.35
69624;BME280;56843;52.020;5.670;2023-03-05T05:41:43;101695.59;;;10.97;59.18
69624;BME280;56843;52.020;5.670;2023-03-05T05:43:13;101694.47;;;10.98;59.39
69624;BME280;56843;52.020;5.670;2023-03-05T05:44:44;101693.72;;;10.97;59.31
69624;BME280;56843;52.020;5.670;2023-03-05T05:46:16;101691.81;;;10.98;59.13
69624;BME280;56843;52.020;5.670;2023-03-05T05:47:47;101691.81;;;10.98;59.37
69624;BME280;56843;52.020;5.670;2023-03-05T05:49:17;101687.56;;;10.97;59.46
69624;BME280;56843;52.020;5.670;2023-03-05T05:50:48;101684.91;;;10.97;59.36
69624;BME280;56843;52.020;5.670;2023-03-05T05:52:18;101691.31;;;10.96;59.43
69624;BME280;56843;52.020;5.670;2023-03-05T05:53:49;101679.34;;;10.93;59.58
69624;BME280;56843;52.020;5.670;2023-03-05T05:55:20;101679.34;;;10.93;59.23
69624;BME280;56843;52.020;5.670;2023-03-05T05:56:51;101679.66;;;10.92;59.42
69624;BME280;56843;52.020;5.670;2023-03-05T05:58:22;101675.13;;;10.92;59.69
69624;BME280;56843;52.020;5.670;2023-03-05T05:59:52;101681.53;;;10.91;59.46
69624;BME280;56843;52.020;5.670;2023-03-05T06:01:26;101673.03;;;10.89;59.42
69624;BME280;56843;52.020;5.670;2023-03-05T06:02:57;101682.16;;;10.88;59.59
69624;BME280;56843;52.020;5.670;2023-03-05T06:04:28;101681.38;;;10.88;59.21
69624;BME280;56843;52.020;5.670;2023-03-05T06:05:58;101670.19;;;10.86;59.51
69624;BME280;56843;52.020;5.670;2023-03-05T06:07:29;101679.00;;;10.86;59.30
69624;BME280;56843;52.020;5.670;2023-03-05T06:09:00;101680.88;;;10.86;59.46
69624;BME280;56843;52.020;5.670;2023-03-05T06:10:31;101677.41;;;10.85;59.37
69624;BME280;56843;52.020;5.670;2023-03-05T06:12:01;101673.94;;;10.85;59.73
69624;BME280;56843;52.020;5.670;2023-03-05T06:13:32;101672.88;;;10.86;59.71
69624;BME280;56843;52.020;5.670;2023-03-05T06:15:04;101678.22;;;10.86;59.45
69624;BME280;56843;52.020;5.670;2023-03-05T06:16:34;101672.06;;;10.85;59.60
69624;BME280;56843;52.020;5.670;2023-03-05T06:18:05;101672.88;;;10.86;59.34
69624;BME280;56843;52.020;5.670;2023-03-05T06:19:36;101672.06;;;10.85;59.26
69624;BME280;56843;52.020;5.670;2023-03-05T06:21:09;101670.19;;;10.86;59.57
69624;BME280;56843;52.020;5.670;2023-03-05T06:22:40;101673.66;;;10.86;59.45
69624;BME280;56843;52.020;5.670;2023-03-05T06:24:10;101676.34;;;10.86;59.31
69624;BME280;56843;52.020;5.670;2023-03-05T06:25:41;101667.53;;;10.86;59.31
69624;BME280;56843;52.020;5.670;2023-03-05T06:27:12;101672.88;;;10.86;59.37
69624;BME280;56843;52.020;5.670;2023-03-05T06:28:42;101672.06;;;10.85;59.47
69624;BME280;56843;52.020;5.670;2023-03-05T06:30:13;101675.06;;;10.84;59.30
69624;BME280;56843;52.020;5.670;2023-03-05T06:31:44;101671.91;;;10.82;59.23
69624;BME280;56843;52.020;5.670;2023-03-05T06:33:14;101668.13;;;10.83;59.35
69624;BME280;56843;52.020;5.670;2023-03-05T06:34:45;101676.13;;;10.83;59.27
69624;BME280;56843;52.020;5.670;2023-03-05T06:36:18;101668.91;;;10.83;59.27
69624;BME280;56843;52.020;5.670;2023-03-05T06:37:49;101671.91;;;10.82;59.20
69624;BME280;56843;52.020;5.670;2023-03-05T06:39:19;101672.66;;;10.82;59.28
69624;BME280;56843;52.020;5.670;2023-03-05T06:40:50;101671.91;;;10.82;58.95
69624;BME280;56843;52.020;5.670;2023-03-05T06:42:21;101672.66;;;10.82;59.08
69624;BME280;56843;52.020;5.670;2023-03-05T06:43:52;101678.31;;;10.81;59.08
69624;BME280;56843;52.020;5.670;2023-03-05T06:45:28;101677.53;;;10.80;59.28
69624;BME280;56843;52.020;5.670;2023-03-05T06:47:03;101667.94;;;10.79;58.92
69624;BME280;56843;52.020;5.670;2023-03-05T06:48:34;101675.97;;;10.79;59.16
69624;BME280;56843;52.020;5.670;2023-03-05T06:50:05;101673.28;;;10.79;59.29
69624;BME280;56843;52.020;5.670;2023-03-05T06:51:38;101658.81;;;10.80;59.19
69624;BME280;56843;52.020;5.670;2023-03-05T06:53:09;101667.16;;;10.79;59.24
69624;BME280;56843;52.020;5.670;2023-03-05T06:54:39;101667.94;;;10.79;58.96
69624;BME280;56843;52.020;5.670;2023-03-05T06:56:10;101666.34;;;10.78;59.18
69624;BME280;56843;52.020;5.670;2023-03-05T06:57:43;101666.34;;;10.78;58.96
69624;BME280;56843;52.020;5.670;2023-03-05T06:59:15;101661.00;;;10.78;59.06
69624;BME280;56843;52.020;5.670;2023-03-05T07:00:46;101664.47;;;10.79;59.24
69624;BME280;56843;52.020;5.670;2023-03-05T07:02:17;101658.34;;;10.78;59.02
69624;BME280;56843;52.020;5.670;2023-03-05T07:03:52;101663.69;;;10.78;58.98
69624;BME280;56843;52.020;5.670;2023-03-05T07:05:23;101665.59;;;10.78;59.08
69624;BME280;56843;52.020;5.670;2023-03-05T07:06:53;101667.47;;;10.77;58.89
69624;BME280;56843;52.020;5.670;2023-03-05T07:08:25;101664.78;;;10.77;59.23
69624;BME280;56843;52.020;5.670;2023-03-05T07:09:55;101666.34;;;10.78;58.99
69624;BME280;56843;52.020;5.670;2023-03-05T07:11:26;101665.59;;;10.78;59.14
69624;BME280;56843;52.020;5.670;2023-03-05T07:12:57;101672.50;;;10.79;59.07
69624;BME280;56843;52.020;5.670;2023-03-05T07:14:28;101664.00;;;10.77;58.84
69624;BME280;56843;52.020;5.670;2023-03-05T07:15:58;101667.16;;;10.79;58.94
69624;BME280;56843;52.020;5.670;2023-03-05T07:17:29;101673.59;;;10.78;59.19
69624;BME280;56843;52.020;5.670;2023-03-05T07:19:01;101670.13;;;10.77;59.12
69624;BME280;56843;52.020;5.670;2023-03-05T07:20:36;101663.19;;;10.76;59.11
69624;BME280;56843;52.020;5.670;2023-03-05T07:22:07;101661.63;;;10.75;59.03
69624;BME280;56843;52.020;5.670;2023-03-05T07:23:38;101663.19;;;10.76;59.04
69624;BME280;56843;52.020;5.670;2023-03-05T07:25:08;101664.31;;;10.75;59.13
69624;BME280;56843;52.020;5.670;2023-03-05T07:26:39;101660.03;;;10.74;59.13
69624;BME280;56843;52.020;5.670;2023-03-05T07:28:09;101659.25;;;10.74;59.08
69624;BME280;56843;52.020;5.670;2023-03-05T07:29:40;101657.69;;;10.73;58.97
69624;BME280;56843;52.020;5.670;2023-03-05T07:31:21;101654.22;;;10.72;58.87
69624;BME280;56843;52.020;5.670;2023-03-05T07:32:53;101669.44;;;10.72;58.88
69624;BME280;56843;52.020;5.670;2023-03-05T07:34:23;101662.22;;;10.72;58.72
69624;BME280;56843;52.020;5.670;2023-03-05T07:35:54;101669.44;;;10.72;58.61
69624;BME280;56843;52.020;5.670;2023-03-05T07:37:25;101654.53;;;10.71;58.72
69624;BME280;56843;52.020;5.670;2023-03-05T07:38:55;101665.22;;;10.71;58.77
69624;BME280;56843;52.020;5.670;2023-03-05T07:40:26;101652.94;;;10.70;58.53
69624;BME280;56843;52.020;5.670;2023-03-05T07:41:56;101659.06;;;10.70;58.54
69624;BME280;56843;52.020;5.670;2023-03-05T07:43:33;101664.41;;;10.70;58.57
69624;BME280;56843;52.020;5.670;2023-03-05T07:45:03;101654.53;;;10.71;58.81
69624;BME280;56843;52.020;5.670;2023-03-05T07:46:34;101653.72;;;10.70;58.57
69624;BME280;56843;52.020;5.670;2023-03-05T07:48:06;101654.53;;;10.71;58.68
69624;BME280;56843;52.020;5.670;2023-03-05T07:49:36;101665.97;;;10.71;58.57
69624;BME280;56843;52.020;5.670;2023-03-05T07:51:12;101653.91;;;10.74;58.68
69624;BME280;56843;52.020;5.670;2023-03-05T07:52:45;101652.63;;;10.71;58.63
69624;BME280;56843;52.020;5.670;2023-03-05T07:54:15;101648.06;;;10.72;58.89
69624;BME280;56843;52.020;5.670;2023-03-05T07:55:46;101649.34;;;10.74;58.61
69624;BME280;56843;52.020;5.670;2023-03-05T07:57:16;101644.81;;;10.75;58.73
69624;BME280;56843;52.020;5.670;2023-03-05T07:58:47;101647.97;;;10.77;58.60
69624;BME280;56843;52.020;5.670;2023-03-05T08:00:18;101646.56;;;10.79;58.62
69624;BME280;56843;52.020;5.670;2023-03-05T08:01:48;101644.97;;;10.78;58.75